createdAt,value
2018-11-14T00:00:06.689Z,93.46
2018-11-14T00:02:39.264Z,93.23
2018-11-14T00:05:09.500Z,94.32
2018-11-14T00:07:36.991Z,95.09
2018-11-14T00:10:06.705Z,95.85
2018-11-14T00:12:34.161Z,95.38
2018-11-14T00:15:06.826Z,94.96
2018-11-14T00:17:34.336Z,93.16
2018-11-14T00:20:01.733Z,93.04
2018-11-14T00:22:30.548Z,93.82
2018-11-14T00:24:58.089Z,93.71
2018-11-14T00:27:25.358Z,93.59
2018-11-14T00:29:53.203Z,94.73
2018-11-14T00:32:20.633Z,95.35
2018-11-14T00:34:56.412Z,96.33
2018-11-14T00:37:23.827Z,96.41
2018-11-14T00:39:51.248Z,95.37
2018-11-14T00:42:18.567Z,96.47
2018-11-14T00:44:45.821Z,97.08
2018-11-14T00:47:13.088Z,96.40
2018-11-14T00:49:40.310Z,95.75
2018-11-14T00:52:07.703Z,94.47
2018-11-14T00:54:35.007Z,94.54
2018-11-14T00:57:02.322Z,95.14
2018-11-14T00:59:29.579Z,95.19
2018-11-14T01:01:56.856Z,95.85
2018-11-14T01:04:24.173Z,95.71
2018-11-14T01:06:51.451Z,95.21
2018-11-14T01:11:46.074Z,94.78
2018-11-14T01:14:13.434Z,95.30
2018-11-14T01:16:40.811Z,95.02
2018-11-14T01:19:09.034Z,95.03
2018-11-14T01:21:36.311Z,95.15
2018-11-14T01:24:03.566Z,94.21
2018-11-14T01:26:30.822Z,93.57
2018-11-14T01:28:58.227Z,94.56
2018-11-14T01:31:25.481Z,95.00
2018-11-14T01:33:52.793Z,94.70
2018-11-14T01:36:20.080Z,93.90
2018-11-14T01:38:47.284Z,93.23
2018-11-14T01:41:14.530Z,92.90
2018-11-14T01:43:41.819Z,92.87
2018-11-14T01:46:09.196Z,93.78
2018-11-14T01:48:37.118Z,94.44
2018-11-14T01:51:04.480Z,94.49
2018-11-14T01:53:31.742Z,93.63
2018-11-14T01:55:58.951Z,94.47
2018-11-14T01:58:26.274Z,94.52
2018-11-14T02:00:53.658Z,92.92
2018-11-14T02:03:20.931Z,92.58
2018-11-14T02:05:48.309Z,93.01
2018-11-14T02:08:15.552Z,93.28
2018-11-14T02:10:42.817Z,92.95
2018-11-14T02:13:10.039Z,92.42
2018-11-14T02:15:37.311Z,92.00
2018-11-14T02:18:04.977Z,92.24
2018-11-14T02:20:32.259Z,92.32
2018-11-14T02:22:59.590Z,92.39
2018-11-14T02:25:26.926Z,92.19
2018-11-14T02:27:54.194Z,92.32
2018-11-14T02:30:22.986Z,92.30
2018-11-14T02:32:50.282Z,92.44
2018-11-14T02:35:17.663Z,92.26
2018-11-14T02:37:45.390Z,92.32
2018-11-14T02:40:19.067Z,92.94
2018-11-14T02:42:46.338Z,93.21
2018-11-14T02:45:13.887Z,93.35
2018-11-14T02:47:41.138Z,93.48
2018-11-14T02:50:11.565Z,92.68
2018-11-14T02:52:38.896Z,91.93
2018-11-14T02:55:07.406Z,91.92
2018-11-14T02:57:34.806Z,92.10
2018-11-14T03:00:02.246Z,92.02
2018-11-14T03:02:29.561Z,93.68
2018-11-14T03:04:56.867Z,95.49
2018-11-14T03:07:24.192Z,95.69
2018-11-14T03:09:51.479Z,95.97
2018-11-14T03:12:18.875Z,96.09
2018-11-14T03:14:46.134Z,96.82
2018-11-14T03:17:19.234Z,96.97
2018-11-14T03:19:46.614Z,97.67
2018-11-14T03:22:13.843Z,97.82
2018-11-14T03:24:41.187Z,97.99
2018-11-14T03:27:08.417Z,97.69
2018-11-14T03:29:35.843Z,96.85
2018-11-14T03:32:03.236Z,96.43
2018-11-14T03:34:30.524Z,95.95
2018-11-14T03:36:57.961Z,95.41
2018-11-14T03:39:25.306Z,97.02
2018-11-14T03:42:00.209Z,97.55
2018-11-14T03:44:27.959Z,97.31
2018-11-14T03:46:55.813Z,97.12
2018-11-14T03:49:23.752Z,96.40
2018-11-14T03:51:51.214Z,95.35
2018-11-14T03:54:18.812Z,95.17
2018-11-14T03:56:46.196Z,95.04
2018-11-14T03:59:20.229Z,94.74
2018-11-14T04:01:47.604Z,95.82
2018-11-14T04:04:14.949Z,95.72
2018-11-14T04:06:42.482Z,95.30
2018-11-14T04:09:11.752Z,94.24
2018-11-14T04:11:39.068Z,93.51
2018-11-14T04:14:06.614Z,93.64
2018-11-14T04:16:36.121Z,93.72
2018-11-14T04:19:03.481Z,94.46
2018-11-14T04:21:31.363Z,94.46
2018-11-14T04:23:58.649Z,95.88
2018-11-14T04:26:26.075Z,95.11
2018-11-14T04:28:53.457Z,94.89
2018-11-14T04:31:20.756Z,94.59
2018-11-14T04:33:48.301Z,95.07
2018-11-14T04:36:15.536Z,94.57
2018-11-14T04:38:42.854Z,94.18
2018-11-14T04:41:10.273Z,94.51
2018-11-14T04:43:37.546Z,95.23
2018-11-14T04:46:05.080Z,95.43
2018-11-14T04:48:32.599Z,95.99
2018-11-14T04:51:00.014Z,96.62
2018-11-14T04:53:27.385Z,96.37
2018-11-14T04:55:54.823Z,96.30
2018-11-14T04:58:22.199Z,96.14
2018-11-14T05:00:50.307Z,96.34
2018-11-14T05:03:17.638Z,95.95
2018-11-14T05:05:45.062Z,96.01
2018-11-14T05:08:12.453Z,95.30
2018-11-14T05:10:39.835Z,94.91
2018-11-14T05:13:07.173Z,94.66
2018-11-14T05:15:34.398Z,94.50
2018-11-14T05:18:01.761Z,94.20
2018-11-14T05:20:29.113Z,93.43
2018-11-14T05:22:56.385Z,93.65
2018-11-14T05:25:23.644Z,94.04
2018-11-14T05:27:50.936Z,94.27
2018-11-14T05:30:19.299Z,94.17
2018-11-14T05:32:47.511Z,94.21
2018-11-14T05:35:15.185Z,94.66
2018-11-14T05:37:42.548Z,94.75
2018-11-14T05:40:13.288Z,93.64
2018-11-14T05:42:41.203Z,94.93
2018-11-14T05:45:11.983Z,96.92
2018-11-14T05:47:39.573Z,97.79
2018-11-14T05:50:10.537Z,97.42
2018-11-14T05:52:38.246Z,96.43
2018-11-14T05:55:06.135Z,95.63
2018-11-14T05:57:33.690Z,95.09
2018-11-14T06:00:01.116Z,96.27
2018-11-14T06:02:28.581Z,97.19
2018-11-14T06:04:55.972Z,98.16
2018-11-14T06:07:23.483Z,98.87
2018-11-14T06:09:50.748Z,99.32
2018-11-14T06:12:18.634Z,99.44
2018-11-14T06:14:46.134Z,99.31
2018-11-14T06:17:13.528Z,99.15
2018-11-14T06:19:40.907Z,98.34
2018-11-14T06:22:08.283Z,97.50
2018-11-14T06:24:35.585Z,97.30
2018-11-14T06:27:02.936Z,97.17
2018-11-14T06:29:30.514Z,96.78
2018-11-14T06:31:57.880Z,97.12
2018-11-14T06:34:25.282Z,96.94
2018-11-14T06:36:52.650Z,97.44
2018-11-14T06:39:20.154Z,98.08
2018-11-14T06:41:47.728Z,98.06
2018-11-14T06:44:15.045Z,97.69
2018-11-14T06:46:42.400Z,96.10
2018-11-14T06:49:11.088Z,95.28
2018-11-14T06:51:38.485Z,94.17
2018-11-14T06:54:05.750Z,93.71
2018-11-14T06:56:33.037Z,93.07
2018-11-14T06:59:00.510Z,93.21
2018-11-14T07:01:27.912Z,92.97
2018-11-14T07:03:55.786Z,92.57
2018-11-14T07:06:23.215Z,92.70
2018-11-14T07:08:50.686Z,92.75
2018-11-14T07:11:18.121Z,93.61
2018-11-14T07:13:45.538Z,93.90
2018-11-14T07:16:12.947Z,93.43
2018-11-14T07:18:40.282Z,93.85
2018-11-14T07:21:07.655Z,94.42
2018-11-14T07:23:35.036Z,94.58
2018-11-14T07:26:02.412Z,94.02
2018-11-14T07:28:29.775Z,91.99
2018-11-14T07:30:58.706Z,90.41
2018-11-14T07:36:03.972Z,91.21
2018-11-14T07:38:47.955Z,92.95
2018-11-14T07:41:16.770Z,92.30
2018-11-14T07:43:44.610Z,92.87
2018-11-14T07:46:12.387Z,90.34
2018-11-14T07:48:40.093Z,86.60
2018-11-14T07:51:07.650Z,82.16
2018-11-14T07:53:35.261Z,78.54
2018-11-14T07:56:02.960Z,75.85
2018-11-14T07:58:30.587Z,74.03
2018-11-14T08:00:58.199Z,70.82
2018-11-14T08:03:25.789Z,72.69
2018-11-14T08:05:53.736Z,69.08
2018-11-14T08:08:21.338Z,65.31
2018-11-14T08:10:48.853Z,61.53
2018-11-14T08:13:19.486Z,59.72
2018-11-14T08:15:47.179Z,56.28
2018-11-14T08:18:14.592Z,54.74
2018-11-14T08:20:41.905Z,53.50
2018-11-14T08:25:39.975Z,47.94
2018-11-14T08:28:07.429Z,48.55
2018-11-14T08:30:34.849Z,49.21
2018-11-14T08:33:02.322Z,48.38
2018-11-14T08:35:29.722Z,48.67
2018-11-14T08:37:57.073Z,47.68
2018-11-14T08:40:24.430Z,46.03
2018-11-14T08:42:53.658Z,44.93
2018-11-14T08:45:21.178Z,45.13
2018-11-14T08:47:48.745Z,46.54
2018-11-14T08:50:16.400Z,45.00
2018-11-14T08:52:44.279Z,46.67
2018-11-14T08:55:12.626Z,46.44
2018-11-14T08:57:40.992Z,46.19
2018-11-14T09:00:10.543Z,45.72
2018-11-14T09:02:37.964Z,46.75
2018-11-14T09:05:05.723Z,46.09
2018-11-14T09:07:33.208Z,45.91
2018-11-14T09:10:00.733Z,44.58
2018-11-14T09:12:28.226Z,44.33
2018-11-14T09:14:55.569Z,45.21
2018-11-14T09:17:22.906Z,44.54
2018-11-14T09:19:50.492Z,45.69
2018-11-14T09:22:18.037Z,47.53
2018-11-14T09:24:45.414Z,50.83
2018-11-14T09:27:12.766Z,53.31
2018-11-14T09:29:40.128Z,53.31
2018-11-14T09:32:07.482Z,55.38
2018-11-14T09:34:34.918Z,56.22
2018-11-14T09:37:02.343Z,56.10
2018-11-14T09:39:29.738Z,55.54
2018-11-14T09:41:57.110Z,56.06
2018-11-14T09:44:24.450Z,57.69
2018-11-14T09:46:51.864Z,58.85
2018-11-14T09:49:19.734Z,58.12
2018-11-14T09:51:47.111Z,60.94
2018-11-14T09:54:14.565Z,60.05
2018-11-14T09:56:42.060Z,58.00
2018-11-14T09:59:09.457Z,57.42
2018-11-14T10:01:36.892Z,55.42
2018-11-14T10:04:05.688Z,54.43
2018-11-14T10:06:33.062Z,54.98
2018-11-14T10:09:00.349Z,54.87
2018-11-14T10:11:27.562Z,55.30
2018-11-14T10:13:54.860Z,58.53
2018-11-14T10:16:22.101Z,59.32
2018-11-14T10:18:49.284Z,59.30
2018-11-14T10:21:16.645Z,60.56
2018-11-14T10:23:43.809Z,60.28
2018-11-14T10:26:11.005Z,59.32
2018-11-14T10:28:39.814Z,59.60
2018-11-14T10:31:10.017Z,60.19
2018-11-14T10:33:37.237Z,61.15
2018-11-14T10:36:07.714Z,62.14
2018-11-14T10:38:34.999Z,61.45
2018-11-14T10:41:02.249Z,61.78
2018-11-14T10:43:29.578Z,62.65
2018-11-14T10:45:56.837Z,61.16
2018-11-14T10:48:24.148Z,62.35
2018-11-14T10:50:51.629Z,62.35
2018-11-14T10:53:18.910Z,60.66
2018-11-14T10:55:46.226Z,60.49
2018-11-14T10:58:13.529Z,61.20
2018-11-14T11:00:46.403Z,60.20
2018-11-14T11:03:18.975Z,60.75
2018-11-14T11:05:51.935Z,60.33
2018-11-14T11:08:24.370Z,60.73
2018-11-14T11:10:57.368Z,59.46
2018-11-14T11:13:30.377Z,59.48
2018-11-14T11:16:03.212Z,59.54
2018-11-14T11:18:31.788Z,59.81
2018-11-14T11:20:59.090Z,58.02
2018-11-14T11:23:26.385Z,58.12
2018-11-14T11:25:53.598Z,58.32
2018-11-14T11:28:20.910Z,61.02
2018-11-14T11:30:48.259Z,60.61
2018-11-14T11:33:15.517Z,59.63
2018-11-14T11:35:42.857Z,60.16
2018-11-14T11:38:10.109Z,59.35
2018-11-14T11:40:37.368Z,59.16
2018-11-14T11:43:05.225Z,59.33
2018-11-14T11:45:33.080Z,59.68
2018-11-14T11:48:00.376Z,61.30
2018-11-14T11:50:27.988Z,62.70
2018-11-14T11:52:55.221Z,63.26
2018-11-14T11:55:22.528Z,61.27
2018-11-14T11:57:49.819Z,62.22
2018-11-14T12:00:17.465Z,59.98
2018-11-14T12:02:44.628Z,59.21
2018-11-14T12:05:13.052Z,59.07
2018-11-14T12:07:41.054Z,60.57
2018-11-14T12:10:11.498Z,58.61
2018-11-14T12:12:39.088Z,57.82
2018-11-14T12:15:08.080Z,60.32
2018-11-14T12:17:35.558Z,60.20
2018-11-14T12:20:03.117Z,59.20
2018-11-14T12:22:30.469Z,60.13
2018-11-14T12:24:57.859Z,59.77
2018-11-14T12:27:25.315Z,60.02
2018-11-14T12:29:52.710Z,60.67
2018-11-14T12:32:20.003Z,59.80
2018-11-14T12:34:52.540Z,60.63
2018-11-14T12:37:23.359Z,58.73
2018-11-14T12:39:50.683Z,59.97
2018-11-14T12:42:18.159Z,60.69
2018-11-14T12:44:45.632Z,60.42
2018-11-14T12:47:13.181Z,61.62
2018-11-14T12:49:40.795Z,62.55
2018-11-14T12:52:08.312Z,63.00
2018-11-14T12:54:35.750Z,63.56
2018-11-14T12:57:03.298Z,61.32
2018-11-14T12:59:30.758Z,60.92
2018-11-14T13:01:58.264Z,59.82
2018-11-14T13:04:25.664Z,60.08
2018-11-14T13:06:53.129Z,60.20
2018-11-14T13:09:20.523Z,59.27
2018-11-14T13:11:47.989Z,59.74
2018-11-14T13:14:15.479Z,59.28
2018-11-14T13:16:44.229Z,58.77
2018-11-14T13:19:11.945Z,59.54
2018-11-14T13:21:39.359Z,62.04
2018-11-14T13:24:06.750Z,59.74
2018-11-14T13:26:34.287Z,59.70
2018-11-14T13:29:02.372Z,60.18
2018-11-14T13:31:29.540Z,59.59
2018-11-14T13:33:56.893Z,58.82
2018-11-14T13:36:24.140Z,58.32
2018-11-14T13:38:51.476Z,58.39
2018-11-14T13:41:18.703Z,59.24
2018-11-14T13:43:45.985Z,59.25
2018-11-14T13:46:13.941Z,60.94
2018-11-14T13:48:41.363Z,57.21
2018-11-14T13:51:08.781Z,58.06
2018-11-14T13:53:35.997Z,58.40
2018-11-14T13:56:03.294Z,58.42
2018-11-14T13:58:30.857Z,58.76
2018-11-14T14:00:58.394Z,58.98
2018-11-14T14:03:25.657Z,58.24
2018-11-14T14:05:53.038Z,57.78
2018-11-14T14:08:20.310Z,58.84
2018-11-14T14:10:48.262Z,59.35
2018-11-14T14:13:15.495Z,57.72
2018-11-14T14:15:42.921Z,58.99
2018-11-14T14:18:10.485Z,58.02
2018-11-14T14:20:38.450Z,58.22
2018-11-14T14:23:05.930Z,59.00
2018-11-14T14:25:33.168Z,58.96
2018-11-14T14:28:05.784Z,60.49
2018-11-14T14:30:33.460Z,60.93
2018-11-14T14:33:00.696Z,61.30
2018-11-14T14:35:27.966Z,62.30
2018-11-14T14:37:55.820Z,62.15
2018-11-14T14:40:23.376Z,63.19
2018-11-14T14:42:50.835Z,63.97
2018-11-14T14:45:19.266Z,63.04
2018-11-14T14:47:46.572Z,64.43
2018-11-14T14:50:14.862Z,62.98
2018-11-14T14:52:42.613Z,63.82
2018-11-14T14:55:14.167Z,65.00
2018-11-14T14:57:42.097Z,66.35
2018-11-14T15:00:12.011Z,63.84
2018-11-14T15:02:39.315Z,63.44
2018-11-14T15:05:07.197Z,60.71
2018-11-14T15:07:34.555Z,61.21
2018-11-14T15:10:01.859Z,60.06
2018-11-14T15:12:29.130Z,58.12
2018-11-14T15:14:56.416Z,57.05
2018-11-14T15:17:23.724Z,56.68
2018-11-14T15:19:51.027Z,57.44
2018-11-14T15:22:18.362Z,56.83
2018-11-14T15:24:45.657Z,56.27
2018-11-14T15:29:49.590Z,58.01
2018-11-14T15:32:16.879Z,58.07
2018-11-14T15:34:44.118Z,58.55
2018-11-14T15:37:11.393Z,59.27
2018-11-14T15:39:38.759Z,61.50
2018-11-14T15:42:06.022Z,62.64
2018-11-14T15:44:33.329Z,65.15
2018-11-14T15:47:00.594Z,65.84
2018-11-14T15:49:28.127Z,66.19
2018-11-14T15:51:55.386Z,66.85
2018-11-14T15:54:22.661Z,68.12
2018-11-14T15:56:49.888Z,68.01
2018-11-14T15:59:17.103Z,69.54
2018-11-14T16:01:44.402Z,69.75
2018-11-14T16:04:11.768Z,70.58
2018-11-14T16:06:38.941Z,70.75
2018-11-14T16:09:09.067Z,71.50
2018-11-14T16:11:36.328Z,71.56
2018-11-14T16:14:03.862Z,72.44
2018-11-14T16:16:31.384Z,72.31
2018-11-14T16:18:58.620Z,71.97
2018-11-14T16:21:25.972Z,73.06
2018-11-14T16:23:53.354Z,73.55
2018-11-14T16:26:20.618Z,73.74
2018-11-14T16:28:47.789Z,73.74
2018-11-14T16:31:15.028Z,74.10
2018-11-14T16:33:42.287Z,74.83
2018-11-14T16:36:14.544Z,75.86
2018-11-14T16:38:45.729Z,76.69
2018-11-14T16:41:13.053Z,75.84
2018-11-14T16:43:40.386Z,76.71
2018-11-14T16:46:07.705Z,76.87
2018-11-14T16:48:34.898Z,76.00
2018-11-14T16:51:02.373Z,76.97
2018-11-14T16:53:29.698Z,76.87
2018-11-14T16:55:56.927Z,77.31
2018-11-14T16:58:24.229Z,77.13
2018-11-14T17:00:51.515Z,77.39
2018-11-14T17:03:18.899Z,76.79
2018-11-14T17:05:46.307Z,77.98
2018-11-14T17:08:13.763Z,80.09
2018-11-14T17:10:41.181Z,79.82
2018-11-14T17:13:08.464Z,79.28
2018-11-14T17:15:36.043Z,78.98
2018-11-14T17:18:03.398Z,79.77
2018-11-14T17:20:30.741Z,79.92
2018-11-14T17:22:58.118Z,79.75
2018-11-14T17:25:25.446Z,79.86
2018-11-14T17:27:52.685Z,80.38
2018-11-14T17:30:21.478Z,80.11
2018-11-14T17:32:48.804Z,80.65
2018-11-14T17:35:16.456Z,79.98
2018-11-14T17:37:44.225Z,80.20
2018-11-14T17:40:13.987Z,81.33
2018-11-14T17:42:43.896Z,80.61
2018-11-14T17:45:13.354Z,81.54
2018-11-14T17:47:40.757Z,81.80
2018-11-14T17:50:15.827Z,81.73
2018-11-14T17:52:43.097Z,81.55
2018-11-14T17:55:11.939Z,81.59
2018-11-14T17:57:39.260Z,82.50
2018-11-14T18:00:08.949Z,82.86
2018-11-14T18:02:36.264Z,82.72
2018-11-14T18:05:04.013Z,82.57
2018-11-14T18:07:31.392Z,83.11
2018-11-14T18:09:58.783Z,82.58
2018-11-14T18:12:25.980Z,83.20
2018-11-14T18:14:53.227Z,83.37
2018-11-14T18:17:20.681Z,82.58
2018-11-14T18:19:48.005Z,82.49
2018-11-14T18:22:15.292Z,83.20
2018-11-14T18:24:42.562Z,83.76
2018-11-14T18:27:09.872Z,83.46
2018-11-14T18:29:37.174Z,83.87
2018-11-14T18:32:04.856Z,84.55
2018-11-14T18:34:32.124Z,83.35
2018-11-14T18:36:59.517Z,83.60
2018-11-14T18:39:26.854Z,83.97
2018-11-14T18:41:54.068Z,84.50
2018-11-14T18:44:21.298Z,84.60
2018-11-14T18:46:48.574Z,85.04
2018-11-14T18:49:17.729Z,86.11
2018-11-14T18:51:45.102Z,86.45
2018-11-14T18:54:12.337Z,87.12
2018-11-14T18:56:39.661Z,88.05
2018-11-14T18:59:06.918Z,88.22
2018-11-14T19:01:34.167Z,87.60
2018-11-14T19:04:01.434Z,88.14
2018-11-14T19:06:28.623Z,87.76
2018-11-14T19:08:55.903Z,88.03
2018-11-14T19:11:23.138Z,88.74
2018-11-14T19:13:52.022Z,88.60
2018-11-14T19:16:19.296Z,88.16
2018-11-14T19:18:46.635Z,88.21
2018-11-14T19:21:14.008Z,87.52
2018-11-14T19:23:41.256Z,87.35
2018-11-14T19:26:08.571Z,87.30
2018-11-14T19:28:35.980Z,87.68
2018-11-14T19:31:03.202Z,87.13
2018-11-14T19:33:30.413Z,87.38
2018-11-14T19:35:57.771Z,87.81
2018-11-14T19:38:24.985Z,87.32
2018-11-14T19:40:52.662Z,87.89
2018-11-14T19:43:19.934Z,88.36
2018-11-14T19:45:47.231Z,88.27
2018-11-14T19:48:14.426Z,88.40
2018-11-14T19:50:41.690Z,88.73
2018-11-14T19:53:09.012Z,88.02
2018-11-14T19:55:36.462Z,88.36
2018-11-14T19:58:05.871Z,88.23
2018-11-14T20:00:37.111Z,88.31
2018-11-14T20:03:05.135Z,89.27
2018-11-14T20:05:32.447Z,89.91
2018-11-14T20:07:59.834Z,89.41
2018-11-14T20:10:29.543Z,89.27
2018-11-14T20:12:56.839Z,88.57
2018-11-14T20:15:27.457Z,88.30
2018-11-14T20:17:54.733Z,89.09
2018-11-14T20:20:38.924Z,89.18
2018-11-14T20:23:06.214Z,90.78
2018-11-14T20:25:33.582Z,91.12
2018-11-14T20:28:00.878Z,92.78
2018-11-14T20:30:30.928Z,93.18
2018-11-14T20:33:00.232Z,93.14
2018-11-14T20:35:28.003Z,93.14
2018-11-14T20:37:55.294Z,93.08
2018-11-14T20:40:22.940Z,93.10
2018-11-14T20:42:51.010Z,93.10
2018-11-14T20:45:20.647Z,93.09
2018-11-14T20:47:48.022Z,92.86
2018-11-14T20:50:17.611Z,94.05
2018-11-14T20:52:46.945Z,94.91
2018-11-14T20:55:14.367Z,94.75
2018-11-14T20:57:42.267Z,94.79
2018-11-14T21:00:12.024Z,94.71
2018-11-14T21:02:39.699Z,94.77
2018-11-14T21:05:08.236Z,94.31
2018-11-14T21:07:35.624Z,93.68
2018-11-14T21:10:03.032Z,92.75
2018-11-14T21:12:30.273Z,93.72
2018-11-14T21:14:57.573Z,94.04
2018-11-14T21:17:24.843Z,93.38
2018-11-14T21:19:52.231Z,93.28
2018-11-14T21:22:19.519Z,92.98
2018-11-14T21:24:46.816Z,92.82
2018-11-14T21:27:14.289Z,92.98
2018-11-14T21:29:41.599Z,93.94
2018-11-14T21:32:08.842Z,93.49
2018-11-14T21:34:36.152Z,93.67
2018-11-14T21:37:03.441Z,95.47
2018-11-14T21:39:30.813Z,95.40
2018-11-14T21:41:58.098Z,96.17
2018-11-14T21:44:25.450Z,96.02
2018-11-14T21:46:52.774Z,96.71
2018-11-14T21:49:26.086Z,96.55
2018-11-14T21:51:53.451Z,97.15
2018-11-14T21:54:20.804Z,97.35
2018-11-14T21:56:48.050Z,96.29
2018-11-14T21:59:15.405Z,97.17
2018-11-14T22:01:42.812Z,97.89
2018-11-14T22:04:10.417Z,98.37
2018-11-14T22:06:38.633Z,98.37
2018-11-14T22:09:08.232Z,99.03
2018-11-14T22:11:36.343Z,98.15
2018-11-14T22:14:03.625Z,97.64
2018-11-14T22:16:30.823Z,98.29
2018-11-14T22:18:58.121Z,98.09
2018-11-14T22:21:25.415Z,97.73
2018-11-14T22:23:52.680Z,97.86
2018-11-14T22:26:19.985Z,97.33
2018-11-14T22:28:47.189Z,97.67
2018-11-14T22:31:14.431Z,97.56
2018-11-14T22:33:41.673Z,97.16
2018-11-14T22:36:08.952Z,97.17
2018-11-14T22:38:36.234Z,98.04
2018-11-14T22:41:03.529Z,97.74
2018-11-14T22:43:30.771Z,98.82
2018-11-14T22:45:58.066Z,100.00
2018-11-14T22:48:25.299Z,100.00
2018-11-14T22:50:52.588Z,100.00
2018-11-14T22:53:19.782Z,100.00
2018-11-14T22:55:47.056Z,100.00
2018-11-14T22:58:14.344Z,100.00
2018-11-14T23:00:43.450Z,100.00
2018-11-14T23:03:10.703Z,100.00
2018-11-14T23:05:37.970Z,100.00
2018-11-14T23:08:05.240Z,100.00
2018-11-14T23:10:32.488Z,100.00
2018-11-14T23:12:59.722Z,100.00
2018-11-14T23:15:27.053Z,100.00
2018-11-14T23:17:54.239Z,100.00
2018-11-14T23:20:21.690Z,100.00
2018-11-14T23:22:49.471Z,100.00
2018-11-14T23:25:17.195Z,100.00
2018-11-14T23:27:45.694Z,100.00
2018-11-14T23:30:13.962Z,100.00
2018-11-14T23:32:42.727Z,100.00
2018-11-14T23:35:15.709Z,100.00
2018-11-14T23:37:46.345Z,100.00
2018-11-14T23:40:13.595Z,100.00
2018-11-14T23:42:43.933Z,100.00
2018-11-14T23:45:13.448Z,100.00
2018-11-14T23:47:41.203Z,100.00
2018-11-14T23:50:11.036Z,100.00
2018-11-14T23:52:38.310Z,100.00
2018-11-14T23:55:05.749Z,100.00
2018-11-14T23:57:32.956Z,100.00
